Time;durP1;ratioP1;P1;durP2;ratioP2;P2;SDS_P1;SDS_P2;PMS_P1;PMS_P2;Temp;Humidity;BMP_temperature;BMP_pressure;BME280_temperature;BME280_humidity;BME280_pressure;Samples;Min_cycle;Max_cycle;Signal;HPM_P1;HPM_P2
2022/03/27 00:02:05;;;;;;;4.57;2.13;;;5.40;99.90;;;;;;5067187;28;20599;-81
2022/03/27 00:04:31;;;;;;;5.03;3.00;;;5.70;99.90;;;;;;5068978;28;20043;-80
2022/03/27 00:06:57;;;;;;;6.20;2.30;;;6.80;99.90;;;;;;5067526;28;20055;-82
2022/03/27 00:09:23;;;;;;;6.60;2.70;;;5.60;99.90;;;;;;5050069;28;20128;-82
2022/03/27 00:11:49;;;;;;;8.35;2.50;;;5.70;99.90;;;;;;5067849;28;20066;-82
2022/03/27 00:14:15;;;;;;;6.57;2.70;;;5.70;99.90;;;;;;5050993;28;20044;-81
2022/03/27 00:16:40;;;;;;;4.93;2.20;;;5.80;99.90;;;;;;5053850;28;20044;-82
2022/03/27 00:19:06;;;;;;;5.18;2.15;;;5.90;99.90;;;;;;5073102;28;20136;-82
2022/03/27 00:21:32;;;;;;;3.35;2.10;;;5.90;99.90;;;;;;5075843;28;20055;-81
2022/03/27 00:23:59;;;;;;;7.72;2.22;;;6.00;99.90;;;;;;5082313;28;20045;-81
2022/03/27 00:26:25;;;;;;;10.23;3.03;;;6.10;99.90;;;;;;5081840;28;20047;-84
2022/03/27 00:28:51;;;;;;;7.72;2.67;;;6.10;99.90;;;;;;5071925;28;20044;-79
2022/03/27 00:31:17;;;;;;;8.50;2.90;;;6.10;99.90;;;;;;5069803;28;20102;-80
2022/03/27 00:33:45;;;;;;;5.25;2.25;;;6.10;99.90;;;;;;5069328;28;20091;-81
2022/03/27 00:36:13;;;;;;;6.43;2.28;;;6.60;99.90;;;;;;5049904;28;20047;-81
2022/03/27 00:38:48;;;;;;;11.20;2.38;;;6.20;99.90;;;;;;5067891;28;20135;-82
2022/03/27 00:41:18;;;;;;;7.55;2.35;;;6.30;99.90;;;;;;5067875;28;20041;-82
2022/03/27 00:43:44;;;;;;;6.68;2.25;;;6.20;99.90;;;;;;5067393;28;20052;-81
2022/03/27 00:46:09;;;;;;;4.00;2.67;;;6.20;99.90;;;;;;5066832;28;20044;-81
2022/03/27 00:48:35;;;;;;;5.45;2.30;;;6.40;99.90;;;;;;5032629;28;20546;-80
2022/03/27 00:51:01;;;;;;;6.82;2.30;;;6.20;99.90;;;;;;5066803;28;20484;-80
2022/03/27 00:53:27;;;;;;;9.05;3.17;;;6.20;99.90;;;;;;5049564;28;20050;-80
2022/03/27 00:55:52;;;;;;;7.88;2.90;;;6.20;99.90;;;;;;5032871;28;20529;-82
2022/03/27 00:58:19;;;;;;;7.80;2.65;;;7.40;99.90;;;;;;5049745;28;20047;-81
2022/03/27 01:01:24;;;;;;;6.13;2.45;;;6.20;99.90;;;;;;5032582;28;20133;-81
2022/03/27 01:03:54;;;;;;;10.20;3.03;;;6.20;99.90;;;;;;5062808;28;20076;-81
2022/03/27 01:06:31;;;;;;;4.60;2.33;;;6.20;99.90;;;;;;5066001;28;20369;-81
2022/03/27 01:11:43;;;;;;;11.45;2.72;;;6.10;99.90;;;;;;5066579;28;20048;-81
2022/03/27 01:14:09;;;;;;;4.93;2.40;;;6.10;99.90;;;;;;5032091;28;20284;-81
2022/03/27 01:16:41;;;;;;;10.15;2.83;;;6.10;99.90;;;;;;5066417;28;20120;-81
2022/03/27 01:19:10;;;;;;;6.75;2.22;;;6.00;99.90;;;;;;5066844;28;20076;-81
2022/03/27 01:21:38;;;;;;;7.05;2.47;;;5.90;99.90;;;;;;5065692;28;20044;-82
2022/03/27 01:24:04;;;;;;;9.25;2.63;;;5.90;99.90;;;;;;5065562;28;20048;-80
2022/03/27 01:26:30;;;;;;;8.57;2.85;;;5.90;99.90;;;;;;5066499;28;20423;-81
2022/03/27 01:28:56;;;;;;;11.40;2.72;;;5.80;99.90;;;;;;5067346;28;20041;-81
2022/03/27 01:31:23;;;;;;;4.80;2.60;;;5.70;99.90;;;;;;5064950;28;20137;-81
2022/03/27 01:33:49;;;;;;;12.02;2.90;;;5.70;99.90;;;;;;5067068;28;20182;-80
2022/03/27 01:36:27;;;;;;;8.50;3.40;;;5.60;99.90;;;;;;5032736;28;20482;-81
2022/03/27 01:38:54;;;;;;;6.35;2.70;;;5.60;99.90;;;;;;5065993;28;20400;-81
2022/03/27 01:41:21;;;;;;;9.35;2.65;;;5.50;99.90;;;;;;5068216;28;20083;-81
2022/03/27 01:43:48;;;;;;;7.88;2.83;;;5.40;99.90;;;;;;5067290;28;20500;-80
2022/03/27 01:46:14;;;;;;;12.32;2.85;;;5.40;99.90;;;;;;5050334;28;20043;-82
2022/03/27 01:48:39;;;;;;;4.95;2.70;;;5.40;99.90;;;;;;5049853;28;20415;-81
2022/03/27 01:51:05;;;;;;;8.15;2.97;;;5.30;99.90;;;;;;5070176;28;20040;-79
2022/03/27 01:53:32;;;;;;;8.13;2.53;;;5.30;99.90;;;;;;5060056;28;20050;-79
2022/03/27 01:55:58;;;;;;;8.65;3.13;;;5.30;99.90;;;;;;5073981;28;20468;-81
2022/03/27 01:58:24;;;;;;;6.15;3.03;;;5.20;99.90;;;;;;5049090;28;20040;-81
2022/03/27 02:00:50;;;;;;;6.90;3.17;;;5.20;99.90;;;;;;5066698;28;20080;-81
2022/03/27 02:03:16;;;;;;;12.30;2.75;;;5.20;99.90;;;;;;5048698;28;20053;-81
2022/03/27 02:05:43;;;;;;;18.55;3.38;;;5.10;99.90;;;;;;5064919;28;20044;-81
2022/03/27 02:08:11;;;;;;;10.63;3.17;;;5.10;99.90;;;;;;5065193;28;20097;-81
2022/03/27 02:10:38;;;;;;;11.98;3.47;;;5.10;99.90;;;;;;5048028;28;20047;-82
2022/03/27 02:13:10;;;;;;;6.20;3.03;;;5.10;99.90;;;;;;5065054;28;20076;-81
2022/03/27 02:15:36;;;;;;;12.75;2.72;;;5.10;99.90;;;;;;5048185;28;20048;-81
2022/03/27 02:18:02;;;;;;;6.63;2.90;;;5.10;99.90;;;;;;5066172;28;20099;-81
2022/03/27 02:20:28;;;;;;;7.97;2.55;;;5.10;99.90;;;;;;5065360;28;20271;-81
2022/03/27 02:22:54;;;;;;;8.10;3.67;;;5.10;99.90;;;;;;5064663;28;20056;-82
2022/03/27 02:25:20;;;;;;;10.48;3.17;;;5.00;99.90;;;;;;5067047;28;20514;-81
2022/03/27 02:27:46;;;;;;;10.70;3.28;;;5.00;99.90;;;;;;5048056;28;20048;-81
2022/03/27 02:30:15;;;;;;;11.82;4.00;;;5.00;99.90;;;;;;5064453;28;20049;-81
2022/03/27 02:32:41;;;;;;;11.48;3.40;;;6.00;99.90;;;;;;5065311;28;20044;-81
2022/03/27 02:35:06;;;;;;;5.78;3.28;;;5.00;99.90;;;;;;5065239;28;20124;-81
2022/03/27 02:37:32;;;;;;;12.18;3.55;;;5.00;99.90;;;;;;5066314;28;20056;-82
2022/03/27 02:39:58;;;;;;;17.70;4.63;;;5.00;99.90;;;;;;5064714;28;20423;-81
2022/03/27 02:42:27;;;;;;;18.85;4.30;;;5.00;99.90;;;;;;5067735;28;20051;-80
2022/03/27 02:44:53;;;;;;;25.08;4.38;;;5.00;99.90;;;;;;5048755;28;20128;-81
2022/03/27 02:47:18;;;;;;;21.25;4.18;;;5.00;99.90;;;;;;5064752;28;20044;-81
2022/03/27 02:49:44;;;;;;;16.63;3.80;;;5.00;99.90;;;;;;5066462;28;20048;-81
2022/03/27 02:52:10;;;;;;;8.02;4.78;;;5.00;99.90;;;;;;5065805;28;20472;-80
2022/03/27 02:54:35;;;;;;;22.42;4.35;;;5.00;99.90;;;;;;5066299;28;20087;-80
2022/03/27 02:57:01;;;;;;;15.88;4.28;;;5.00;99.90;;;;;;5065753;28;20039;-81
2022/03/27 02:59:27;;;;;;;10.82;4.40;;;5.10;99.90;;;;;;5066833;28;20056;-81
2022/03/27 03:01:53;;;;;;;28.15;4.45;;;5.00;99.90;;;;;;5066011;28;20052;-81
2022/03/27 03:04:18;;;;;;;20.63;3.67;;;5.00;99.90;;;;;;5066821;28;20048;-81
2022/03/27 03:06:44;;;;;;;14.50;4.45;;;5.00;99.90;;;;;;5065778;28;20056;-80
2022/03/27 03:09:10;;;;;;;7.28;3.97;;;5.00;99.90;;;;;;5065100;28;20117;-82
2022/03/27 03:11:36;;;;;;;17.45;3.95;;;5.00;99.90;;;;;;5066134;28;20052;-82
2022/03/27 03:14:02;;;;;;;19.20;4.20;;;5.00;99.90;;;;;;5065414;28;20075;-81
2022/03/27 03:16:29;;;;;;;14.68;4.03;;;5.00;99.90;;;;;;5068558;28;20037;-81
2022/03/27 03:18:55;;;;;;;30.33;4.15;;;5.00;99.90;;;;;;5070523;28;20079;-80
2022/03/27 03:21:21;;;;;;;33.80;4.47;;;5.00;99.90;;;;;;5077300;28;20041;-79
2022/03/27 03:23:47;;;;;;;15.85;3.65;;;5.00;99.90;;;;;;5073863;28;20080;-81
2022/03/27 03:26:13;;;;;;;14.18;4.20;;;5.70;99.90;;;;;;5065523;28;20048;-81
2022/03/27 03:28:39;;;;;;;6.22;3.20;;;5.00;99.90;;;;;;5068616;28;20048;-81
2022/03/27 03:31:05;;;;;;;28.92;3.88;;;5.00;99.90;;;;;;5069270;28;20052;-80
2022/03/27 03:33:32;;;;;;;13.00;3.47;;;5.00;99.90;;;;;;5052065;28;20365;-80
2022/03/27 03:35:57;;;;;;;11.57;3.90;;;5.40;99.90;;;;;;5068544;28;20046;-80
2022/03/27 03:38:23;;;;;;;15.18;3.92;;;4.90;99.90;;;;;;5067602;28;20056;-81
2022/03/27 03:40:49;;;;;;;12.95;2.95;;;4.90;99.90;;;;;;5067554;28;20045;-82
2022/03/27 03:43:15;;;;;;;7.68;3.80;;;4.90;99.90;;;;;;5067361;28;20041;-80
2022/03/27 03:45:41;;;;;;;11.63;3.28;;;4.80;99.90;;;;;;5068309;28;20051;-81
2022/03/27 03:48:07;;;;;;;9.10;3.20;;;4.70;99.90;;;;;;5067102;28;20098;-81
2022/03/27 03:50:35;;;;;;;9.00;2.80;;;4.70;99.90;;;;;;5069154;28;20051;-80
2022/03/27 03:53:01;;;;;;;9.88;2.97;;;4.70;99.90;;;;;;5068752;28;20060;-80
2022/03/27 03:55:28;;;;;;;6.88;2.85;;;4.60;99.90;;;;;;5067848;28;20072;-81
2022/03/27 03:57:54;;;;;;;5.00;2.78;;;4.60;99.90;;;;;;5069409;28;20448;-82
2022/03/27 04:00:20;;;;;;;6.53;2.60;;;4.50;99.90;;;;;;5067430;28;20087;-81
2022/03/27 04:02:45;;;;;;;4.90;1.90;;;4.50;99.90;;;;;;5069093;28;20036;-82
2022/03/27 04:05:11;;;;;;;5.93;2.10;;;5.70;99.90;;;;;;5067035;28;20076;-81
2022/03/27 04:07:37;;;;;;;6.60;2.33;;;4.40;99.90;;;;;;5051038;28;20055;-81
2022/03/27 04:10:03;;;;;;;5.65;2.33;;;4.60;99.90;;;;;;5068269;28;20045;-82
2022/03/27 04:12:30;;;;;;;2.10;1.58;;;4.40;99.90;;;;;;5034520;28;20101;-82
2022/03/27 04:14:56;;;;;;;4.25;2.10;;;4.30;99.90;;;;;;5067772;28;20101;-81
2022/03/27 04:17:22;;;;;;;5.53;2.10;;;4.30;99.90;;;;;;5067370;28;20506;-81
2022/03/27 04:19:47;;;;;;;6.45;2.42;;;4.20;99.90;;;;;;5050826;28;20076;-81
2022/03/27 04:22:13;;;;;;;10.68;2.20;;;4.20;99.90;;;;;;5068245;28;20051;-81
2022/03/27 04:24:39;;;;;;;6.45;2.20;;;4.10;99.90;;;;;;5068715;28;20123;-81
2022/03/27 04:27:05;;;;;;;4.05;2.17;;;4.10;99.90;;;;;;5068362;28;20091;-80
2022/03/27 04:29:30;;;;;;;8.38;2.53;;;4.10;99.90;;;;;;5051298;28;20143;-80
2022/03/27 04:31:56;;;;;;;6.95;2.30;;;4.10;99.90;;;;;;5050876;28;20443;-80
2022/03/27 04:34:22;;;;;;;6.80;2.20;;;4.30;99.90;;;;;;5068636;28;20090;-80
2022/03/27 04:36:47;;;;;;;13.40;2.50;;;4.10;99.90;;;;;;5050245;28;20411;-80
2022/03/27 04:39:13;;;;;;;10.40;2.55;;;4.10;99.90;;;;;;5067811;28;20052;-80
2022/03/27 04:41:39;;;;;;;11.65;2.53;;;4.10;99.90;;;;;;5069863;28;20408;-81
2022/03/27 04:44:05;;;;;;;9.85;2.50;;;4.10;99.90;;;;;;5068295;28;20048;-81
2022/03/27 04:46:31;;;;;;;10.93;2.63;;;4.00;99.90;;;;;;5072647;28;20045;-80
2022/03/27 04:48:57;;;;;;;6.93;1.80;;;4.10;99.90;;;;;;5031673;28;20048;-79
2022/03/27 04:51:22;;;;;;;11.05;2.70;;;4.00;99.90;;;;;;5078604;28;20048;-80
2022/03/27 04:53:49;;;;;;;8.73;2.10;;;4.00;99.90;;;;;;5068902;28;20399;-80
2022/03/27 04:56:16;;;;;;;9.27;1.85;;;4.00;99.90;;;;;;5067909;28;20127;-81
2022/03/27 04:58:42;;;;;;;13.35;2.53;;;3.90;99.90;;;;;;5069966;28;20041;-80
2022/03/27 05:01:08;;;;;;;7.68;2.03;;;3.90;99.90;;;;;;5067489;28;20090;-81
2022/03/27 05:03:33;;;;;;;6.97;1.60;;;3.90;99.90;;;;;;5067327;28;20127;-80
2022/03/27 05:05:59;;;;;;;13.43;2.80;;;3.90;99.90;;;;;;5050129;28;20048;-81
2022/03/27 05:08:26;;;;;;;8.05;1.90;;;3.90;99.90;;;;;;5068836;28;20403;-81
2022/03/27 05:10:52;;;;;;;6.63;2.00;;;4.00;99.90;;;;;;5051468;28;20050;-81
2022/03/27 05:13:18;;;;;;;11.02;1.95;;;4.00;99.90;;;;;;5049716;28;20446;-80
2022/03/27 05:15:44;;;;;;;13.23;2.83;;;4.00;99.90;;;;;;5068083;28;20040;-80
2022/03/27 05:18:10;;;;;;;10.88;2.05;;;4.00;99.90;;;;;;5065972;28;20097;-80
2022/03/27 05:20:39;;;;;;;10.90;1.85;;;4.10;99.90;;;;;;5067999;28;20041;-80
2022/03/27 05:23:05;;;;;;;11.05;2.03;;;4.30;99.90;;;;;;5048423;28;20048;-81
2022/03/27 05:25:40;;;;;;;9.00;2.28;;;4.20;99.90;;;;;;5065322;28;20040;-81
2022/03/27 05:28:08;;;;;;;12.23;2.03;;;4.20;99.90;;;;;;5066172;28;20052;-80
2022/03/27 05:30:34;;;;;;;14.35;1.88;;;4.30;99.90;;;;;;5066861;28;20040;-80
2022/03/27 05:32:59;;;;;;;11.63;2.35;;;4.30;99.90;;;;;;5065781;28;20044;-81
2022/03/27 05:35:26;;;;;;;8.98;1.90;;;4.30;99.90;;;;;;5066761;28;20041;-81
2022/03/27 05:37:54;;;;;;;11.23;2.13;;;4.40;99.90;;;;;;5067052;28;20048;-81
2022/03/27 05:40:21;;;;;;;17.48;2.53;;;4.40;99.90;;;;;;5066393;28;20115;-83
2022/03/27 05:42:48;;;;;;;15.68;2.25;;;4.50;99.90;;;;;;5050000;28;20059;-82
2022/03/27 05:45:14;;;;;;;15.02;2.03;;;4.80;99.90;;;;;;5068392;28;20044;-81
2022/03/27 05:47:41;;;;;;;11.13;1.88;;;4.90;99.90;;;;;;5048921;28;20041;-79
2022/03/27 05:50:09;;;;;;;16.15;2.22;;;4.60;99.90;;;;;;5066472;28;20048;-80
2022/03/27 05:52:35;;;;;;;16.42;2.42;;;4.60;99.90;;;;;;5066648;28;20045;-80
2022/03/27 05:55:00;;;;;;;17.45;2.40;;;5.90;99.90;;;;;;5067435;28;20046;-82
2022/03/27 05:57:26;;;;;;;14.85;2.75;;;4.70;99.90;;;;;;5048782;28;20095;-81
2022/03/27 05:59:52;;;;;;;17.63;3.28;;;4.70;99.90;;;;;;5066086;28;20041;-81
2022/03/27 06:02:18;;;;;;;24.55;4.05;;;4.80;99.90;;;;;;5049014;28;20504;-81
2022/03/27 06:04:44;;;;;;;19.38;3.83;;;4.90;99.90;;;;;;5065958;28;20174;-82
2022/03/27 06:07:10;;;;;;;29.48;4.68;;;5.00;99.90;;;;;;5067923;28;20047;-80
2022/03/27 06:09:36;;;;;;;14.18;3.65;;;5.00;99.90;;;;;;5066080;28;20257;-81
2022/03/27 06:12:03;;;;;;;29.70;3.92;;;5.10;99.90;;;;;;5069482;28;20032;-81
2022/03/27 06:14:29;;;;;;;28.02;4.70;;;5.20;99.90;;;;;;5074563;28;20044;-80
2022/03/27 06:16:55;;;;;;;22.13;4.05;;;5.30;99.90;;;;;;5079287;28;20059;-80
2022/03/27 06:19:21;;;;;;;37.28;4.65;;;5.30;99.90;;;;;;5073071;28;20119;-82
2022/03/27 06:21:47;;;;;;;24.85;4.32;;;5.40;99.90;;;;;;5049853;28;20083;-81
2022/03/27 06:24:13;;;;;;;42.47;4.68;;;5.40;99.90;;;;;;5049505;28;20048;-81
2022/03/27 06:26:40;;;;;;;23.45;4.53;;;5.50;99.90;;;;;;5065196;28;20087;-81
2022/03/27 06:29:09;;;;;;;40.55;5.57;;;5.60;99.90;;;;;;5032546;28;20082;-81
2022/03/27 06:31:38;;;;;;;41.00;5.15;;;5.60;99.90;;;;;;5066463;28;20442;-81
2022/03/27 06:34:05;;;;;;;30.13;4.30;;;6.80;99.90;;;;;;5066540;28;20136;-80
2022/03/27 06:36:35;;;;;;;36.95;4.93;;;5.90;99.90;;;;;;5048446;28;20040;-80
2022/03/27 06:39:02;;;;;;;29.98;5.45;;;6.00;99.90;;;;;;5064377;28;20056;-81
2022/03/27 06:41:29;;;;;;;37.45;4.72;;;6.10;99.90;;;;;;5065136;28;20040;-80
2022/03/27 06:43:55;;;;;;;33.33;4.47;;;7.30;99.90;;;;;;5047442;28;20130;-82
2022/03/27 06:46:20;;;;;;;45.85;5.93;;;6.60;99.90;;;;;;5066346;28;20092;-82
2022/03/27 06:48:47;;;;;;;29.75;4.97;;;6.30;99.90;;;;;;5047768;28;20047;-83
2022/03/27 06:51:14;;;;;;;39.60;4.47;;;6.40;99.90;;;;;;5047858;28;20056;-82
2022/03/27 06:53:40;;;;;;;34.25;4.60;;;7.20;99.90;;;;;;5066251;28;20411;-82
2022/03/27 06:56:06;;;;;;;37.80;4.70;;;6.60;99.90;;;;;;5064398;28;20033;-83
2022/03/27 06:58:33;;;;;;;38.38;5.25;;;6.60;99.90;;;;;;5064678;28;20052;-82
2022/03/27 07:03:42;;;;;;;23.88;4.85;;;6.70;99.90;;;;;;5069249;28;20040;-81
2022/03/27 07:06:08;;;;;;;34.17;4.90;;;7.00;99.90;;;;;;5068495;28;20507;-82
2022/03/27 07:08:34;;;;;;;30.45;5.22;;;6.90;99.90;;;;;;5068152;28;20132;-83
2022/03/27 07:11:00;;;;;;;45.33;4.93;;;7.10;99.90;;;;;;5068307;28;20040;-80
2022/03/27 07:13:26;;;;;;;26.25;4.63;;;8.20;99.90;;;;;;5067755;28;20044;-81
2022/03/27 07:15:52;;;;;;;42.70;5.20;;;8.00;99.90;;;;;;5052458;28;20477;-82
2022/03/27 07:18:18;;;;;;;37.63;5.70;;;7.20;99.90;;;;;;5071142;28;20098;-81
2022/03/27 07:20:46;;;;;;;39.78;6.25;;;8.00;99.90;;;;;;5070222;28;20040;-80
2022/03/27 07:23:14;;;;;;;41.72;5.90;;;7.40;99.90;;;;;;5069302;28;20485;-79
2022/03/27 07:25:42;;;;;;;38.15;5.30;;;8.70;99.90;;;;;;5071953;28;20341;-81
2022/03/27 07:28:09;;;;;;;36.42;5.07;;;7.50;99.90;;;;;;5070592;28;20051;-82
2022/03/27 07:30:36;;;;;;;34.65;4.20;;;7.60;99.90;;;;;;5068740;28;20041;-80
2022/03/27 07:33:03;;;;;;;46.55;5.43;;;7.70;99.90;;;;;;5054081;28;20044;-81
2022/03/27 07:35:32;;;;;;;34.38;5.80;;;7.80;99.90;;;;;;5072357;28;20131;-79
2022/03/27 07:37:59;;;;;;;37.67;5.07;;;7.80;99.90;;;;;;5073852;28;20130;-80
2022/03/27 07:40:25;;;;;;;38.65;5.40;;;7.90;99.90;;;;;;5074716;28;20063;-79
2022/03/27 07:42:53;;;;;;;37.63;6.22;;;7.80;99.90;;;;;;5081930;28;20045;-79
2022/03/27 07:45:21;;;;;;;34.50;5.78;;;7.90;99.90;;;;;;5064907;28;20045;-81
2022/03/27 07:47:49;;;;;;;40.05;4.97;;;8.00;99.90;;;;;;5074922;28;20568;-80
2022/03/27 07:50:16;;;;;;;44.20;6.55;;;8.10;99.90;;;;;;5035033;28;20127;-79
2022/03/27 07:52:42;;;;;;;36.15;5.70;;;8.20;99.90;;;;;;5068776;28;20052;-79
2022/03/27 07:55:10;;;;;;;35.25;4.55;;;8.30;99.90;;;;;;5068623;28;20117;-80
2022/03/27 07:57:42;;;;;;;30.50;5.22;;;8.40;99.90;;;;;;5068150;28;20052;-80
2022/03/27 08:00:10;;;;;;;34.20;6.40;;;8.80;99.90;;;;;;5068869;28;20593;-80
2022/03/27 08:02:37;;;;;;;39.92;5.30;;;8.50;99.90;;;;;;5067201;28;20101;-80
2022/03/27 08:05:04;;;;;;;35.17;5.13;;;8.60;99.90;;;;;;5050084;28;20055;-82
2022/03/27 08:07:32;;;;;;;32.90;5.45;;;8.80;99.90;;;;;;5067833;28;20040;-82
2022/03/27 08:09:58;;;;;;;36.70;5.35;;;9.00;99.90;;;;;;5066539;28;20071;-82
2022/03/27 08:12:25;;;;;;;37.38;5.97;;;9.20;99.90;;;;;;5066035;28;20137;-79
2022/03/27 08:14:50;;;;;;;30.95;5.88;;;9.10;99.90;;;;;;5068799;28;20040;-82
2022/03/27 08:17:17;;;;;;;34.28;4.60;;;10.80;99.90;;;;;;5067404;28;20572;-83
2022/03/27 08:19:43;;;;;;;40.63;6.10;;;9.80;99.90;;;;;;5067562;28;20128;-80
2022/03/27 08:22:10;;;;;;;24.80;4.68;;;10.00;99.90;;;;;;5066806;28;20078;-82
2022/03/27 08:24:36;;;;;;;34.15;4.78;;;10.00;99.90;;;;;;5067458;28;20053;-82
2022/03/27 08:27:04;;;;;;;26.83;4.68;;;10.10;99.90;;;;;;5066537;28;20051;-82
2022/03/27 08:29:39;;;;;;;24.23;4.50;;;10.10;99.90;;;;;;5066894;28;20041;-82
2022/03/27 08:32:12;;;;;;;24.25;3.85;;;10.30;99.90;;;;;;5050534;28;20046;-83
2022/03/27 08:34:39;;;;;;;26.77;5.63;;;10.40;99.90;;;;;;5066517;28;20514;-81
2022/03/27 08:37:06;;;;;;;25.88;5.10;;;10.60;99.90;;;;;;5068276;28;20052;-82
2022/03/27 08:39:32;;;;;;;22.85;4.93;;;10.70;99.90;;;;;;5066585;28;20040;-82
2022/03/27 08:41:59;;;;;;;29.73;5.20;;;10.80;99.90;;;;;;5067150;28;20143;-83
2022/03/27 08:44:27;;;;;;;32.53;6.18;;;10.70;99.90;;;;;;5068171;28;20081;-79
2022/03/27 08:46:54;;;;;;;30.27;6.05;;;10.70;99.90;;;;;;5068719;28;20032;-81
2022/03/27 08:49:26;;;;;;;23.63;5.03;;;10.60;99.90;;;;;;5068559;28;20049;-81
2022/03/27 08:52:15;;;;;;;30.50;8.00;;;10.60;99.90;;;;;;5049947;28;20048;-81
2022/03/27 08:54:54;;;;;;;20.65;3.53;;;10.60;99.90;;;;;;5051004;28;20040;-80
2022/03/27 08:57:29;;;;;;;28.13;4.85;;;10.70;99.90;;;;;;5066095;28;20106;-80
2022/03/27 08:59:57;;;;;;;29.95;4.60;;;10.70;99.90;;;;;;5066536;28;20091;-81
2022/03/27 09:02:24;;;;;;;26.10;5.30;;;10.60;99.90;;;;;;5065940;28;20047;-79
2022/03/27 09:04:54;;;;;;;24.30;5.28;;;10.70;99.90;;;;;;5065882;28;20058;-81
2022/03/27 09:07:31;;;;;;;24.08;4.25;;;10.70;99.90;;;;;;5068065;28;20091;-81
2022/03/27 09:10:00;;;;;;;25.90;4.25;;;10.70;99.90;;;;;;5066972;28;20090;-82
2022/03/27 09:12:26;;;;;;;26.67;5.05;;;11.70;99.90;;;;;;5068220;28;20129;-81
2022/03/27 09:14:52;;;;;;;24.80;4.50;;;11.00;99.90;;;;;;5054335;28;20056;-80
2022/03/27 09:17:18;;;;;;;24.85;4.50;;;11.30;99.90;;;;;;5073058;28;20497;-80
2022/03/27 09:19:48;;;;;;;26.42;4.90;;;11.60;99.90;;;;;;5069101;28;20040;-80
2022/03/27 09:22:21;;;;;;;24.40;4.30;;;11.70;99.90;;;;;;5066244;28;20415;-81
2022/03/27 09:24:55;;;;;;;16.17;3.73;;;11.80;99.90;;;;;;5066261;28;20086;-80
2022/03/27 09:27:36;;;;;;;23.52;4.88;;;11.90;99.90;;;;;;5051316;28;20082;-80
2022/03/27 09:30:08;;;;;;;27.65;4.80;;;12.00;99.90;;;;;;5065923;28;20040;-79
2022/03/27 09:41:54;;;;;;;26.13;4.32;;;12.70;99.90;;;;;;5145041;27;1354129;-81
2022/03/27 09:44:29;;;;;;;27.02;4.20;;;13.00;99.90;;;;;;5134746;27;20046;-79
2022/03/27 09:47:08;;;;;;;28.88;4.25;;;13.00;99.90;;;;;;5149325;27;20061;-78
2022/03/27 09:49:34;;;;;;;22.27;4.53;;;13.00;99.90;;;;;;5150057;27;20082;-77
2022/03/27 09:52:08;;;;;;;32.60;4.57;;;13.20;99.90;;;;;;5131462;27;20039;-80
2022/03/27 09:54:50;;;;;;;24.15;4.30;;;13.40;99.90;;;;;;5149885;27;20065;-78
2022/03/27 09:57:40;;;;;;;23.93;3.83;;;13.60;99.90;;;;;;5149581;27;20114;-77
2022/03/27 10:00:11;;;;;;;28.73;3.97;;;13.80;99.90;;;;;;5148611;27;20319;-76
2022/03/27 10:02:41;;;;;;;13.02;3.60;;;13.80;99.90;;;;;;5150133;27;20370;-76
2022/03/27 10:05:09;;;;;;;16.98;3.80;;;13.80;99.90;;;;;;5132605;27;20552;-76
2022/03/27 10:07:36;;;;;;;19.95;4.97;;;13.80;99.90;;;;;;5169945;27;20049;-78
2022/03/27 10:10:05;;;;;;;30.60;4.03;;;13.90;99.90;;;;;;5149599;27;20046;-77
2022/03/27 10:12:33;;;;;;;20.75;4.13;;;14.00;99.90;;;;;;5131130;27;20038;-76
2022/03/27 10:15:03;;;;;;;22.52;3.95;;;14.00;99.90;;;;;;5165943;27;20129;-77
2022/03/27 10:17:33;;;;;;;21.33;3.38;;;14.20;99.90;;;;;;5128011;27;20046;-77
2022/03/27 10:20:06;;;;;;;17.55;3.72;;;14.30;99.90;;;;;;5129001;27;20116;-77
2022/03/27 10:22:35;;;;;;;21.40;3.58;;;14.30;99.90;;;;;;5146901;27;20390;-76
2022/03/27 10:25:03;;;;;;;19.83;3.88;;;14.20;99.90;;;;;;5127765;27;20051;-76
2022/03/27 10:27:32;;;;;;;19.20;4.07;;;14.20;99.90;;;;;;5146865;27;20043;-77
2022/03/27 10:29:59;;;;;;;22.20;3.85;;;14.20;99.90;;;;;;5146446;27;20515;-77
2022/03/27 10:32:26;;;;;;;19.70;3.70;;;14.20;99.90;;;;;;5128475;27;20047;-74
2022/03/27 10:35:14;;;;;;;22.15;4.13;;;14.20;99.90;;;;;;5145652;27;20087;-78
2022/03/27 10:37:57;;;;;;;17.67;4.45;;;14.40;99.90;;;;;;5127808;27;20402;-78
2022/03/27 10:40:55;;;;;;;17.38;3.45;;;14.50;99.90;;;;;;5110923;27;20418;-77
2022/03/27 10:43:42;;;;;;;21.38;4.25;;;14.50;99.90;;;;;;5126606;27;20046;-76
2022/03/27 10:46:17;;;;;;;18.00;3.60;;;14.50;99.90;;;;;;5146694;27;20039;-77
2022/03/27 10:48:44;;;;;;;16.63;3.50;;;14.50;99.90;;;;;;5146677;27;20120;-75
2022/03/27 10:51:31;;;;;;;19.58;3.53;;;14.60;99.90;;;;;;5141753;27;20081;-75
2022/03/27 10:54:20;;;;;;;21.77;3.88;;;14.60;99.90;;;;;;5115790;27;20088;-76
2022/03/27 10:56:51;;;;;;;16.52;3.83;;;14.60;99.90;;;;;;5114083;27;20478;-76
2022/03/27 10:59:25;;;;;;;20.45;3.90;;;14.60;99.90;;;;;;5132090;27;20079;-76
2022/03/27 11:01:57;;;;;;;17.88;3.35;;;14.80;99.50;;;;;;5097087;27;20043;-76
2022/03/27 11:04:36;;;;;;;13.27;2.72;;;14.80;99.90;;;;;;5096133;27;20468;-77
2022/03/27 11:07:17;;;;;;;15.70;2.83;;;14.80;97.70;;;;;;5114532;27;20428;-77
2022/03/27 11:09:47;;;;;;;17.13;3.92;;;14.70;90.40;;;;;;5113909;27;20043;-77
2022/03/27 11:12:25;;;;;;;12.80;2.75;;;14.60;97.00;;;;;;5079687;27;20054;-77
2022/03/27 11:15:03;;;;;;;15.65;2.58;;;14.70;92.70;;;;;;5113712;27;20054;-77
2022/03/27 11:17:41;;;;;;;13.20;2.53;;;14.80;94.20;;;;;;5095360;27;20046;-77
2022/03/27 11:20:10;;;;;;;11.88;2.40;;;14.80;91.10;;;;;;5131901;27;20398;-76
2022/03/27 11:22:43;;;;;;;10.90;2.33;;;14.90;92.20;;;;;;5113361;27;20497;-79
2022/03/27 11:25:37;;;;;;;15.07;2.35;;;15.00;89.90;;;;;;5112623;27;20093;-77
2022/03/27 11:28:15;;;;;;;15.68;2.38;;;15.00;75.20;;;;;;5113862;27;20050;-77
2022/03/27 11:30:47;;;;;;;13.88;3.53;;;15.10;82.20;;;;;;5112877;27;20133;-77
2022/03/27 11:33:14;;;;;;;15.13;2.22;;;15.10;75.90;;;;;;5131729;27;20043;-77
2022/03/27 11:36:00;;;;;;;10.93;1.95;;;15.20;82.30;;;;;;5096449;27;20039;-76
2022/03/27 11:38:27;;;;;;;12.10;2.20;;;15.30;79.50;;;;;;5112471;27;20035;-76
2022/03/27 11:40:55;;;;;;;16.08;2.72;;;15.40;78.70;;;;;;5112497;27;20087;-77
2022/03/27 11:43:32;;;;;;;14.25;2.80;;;15.50;79.40;;;;;;5110851;27;20139;-79
2022/03/27 11:45:59;;;;;;;12.68;2.55;;;15.60;69.20;;;;;;5095140;27;20058;-81
2022/03/27 11:48:31;;;;;;;13.25;2.60;;;15.70;74.80;;;;;;5095561;27;20517;-79
2022/03/27 11:50:56;;;;;;;8.18;2.33;;;15.70;72.80;;;;;;5129925;27;20035;-80
2022/03/27 11:53:31;;;;;;;13.85;3.53;;;15.60;73.10;;;;;;5078787;27;20043;-80
2022/03/27 11:56:06;;;;;;;10.70;2.25;;;15.80;71.40;;;;;;5110578;27;20047;-79
2022/03/27 11:58:33;;;;;;;13.43;2.95;;;15.90;66.70;;;;;;5130479;27;20556;-80
2022/03/27 12:01:08;;;;;;;14.07;2.58;;;15.90;67.70;;;;;;5110899;27;20046;-79
2022/03/27 12:03:38;;;;;;;12.13;2.70;;;15.80;62.90;;;;;;5092995;27;20128;-80
2022/03/27 12:06:08;;;;;;;16.52;2.50;;;15.70;64.80;;;;;;5112237;27;20046;-79
2022/03/27 12:08:39;;;;;;;9.70;2.80;;;15.70;65.40;;;;;;5093496;27;20513;-80
2022/03/27 12:11:07;;;;;;;11.52;1.90;;;15.80;65.90;;;;;;5112642;27;20436;-79
2022/03/27 12:13:41;;;;;;;12.40;2.88;;;16.00;65.00;;;;;;5110489;27;20039;-79
2022/03/27 12:16:14;;;;;;;12.65;2.35;;;16.10;62.00;;;;;;5130094;27;20086;-79
2022/03/27 12:18:40;;;;;;;10.63;2.30;;;16.10;62.30;;;;;;5130387;27;20104;-79
2022/03/27 12:21:14;;;;;;;12.40;2.50;;;16.00;61.10;;;;;;5134516;27;20118;-80
2022/03/27 12:23:48;;;;;;;9.48;2.58;;;16.10;61.40;;;;;;5121167;27;20636;-79
2022/03/27 12:31:54;;;;;;;10.80;2.27;;;16.30;57.20;;;;;;5131350;27;20043;-79
2022/03/27 12:34:20;;;;;;;8.45;2.38;;;16.30;59.30;;;;;;5094153;27;20050;-79
2022/03/27 12:37:12;;;;;;;8.88;2.17;;;16.30;59.40;;;;;;5112962;27;20039;-80
2022/03/27 12:39:57;;;;;;;13.10;2.38;;;16.30;57.00;;;;;;5111186;27;20043;-79
2022/03/27 12:42:29;;;;;;;12.77;1.67;;;16.40;59.40;;;;;;5128856;27;20035;-79
2022/03/27 12:45:07;;;;;;;8.63;2.80;;;16.60;58.10;;;;;;5111710;27;20046;-78
2022/03/27 12:47:41;;;;;;;15.50;2.65;;;16.70;57.80;;;;;;5109232;27;20051;-79
2022/03/27 12:50:10;;;;;;;7.70;1.73;;;16.70;58.10;;;;;;5110961;27;20050;-79
2022/03/27 12:52:47;;;;;;;10.20;1.80;;;16.70;57.90;;;;;;5128891;27;20050;-80
2022/03/27 12:55:13;;;;;;;8.35;2.35;;;16.60;56.90;;;;;;5128140;27;20761;-80
2022/03/27 12:57:55;;;;;;;13.18;2.67;;;16.50;57.40;;;;;;5129390;27;20145;-81
2022/03/27 13:00:33;;;;;;;12.00;1.65;;;16.60;57.30;;;;;;5109470;27;20525;-80
2022/03/27 13:03:19;;;;;;;16.65;3.05;;;17.90;59.20;;;;;;5093779;27;20039;-80
2022/03/27 13:05:53;;;;;;;10.38;2.53;;;16.60;58.10;;;;;;5110716;27;20572;-80
2022/03/27 13:08:31;;;;;;;16.30;2.40;;;16.50;59.20;;;;;;5127859;27;20398;-80
2022/03/27 13:11:11;;;;;;;13.75;2.67;;;16.40;60.20;;;;;;5111135;27;20058;-80
2022/03/27 13:13:38;;;;;;;12.20;2.65;;;15.70;61.30;;;;;;5109767;27;20039;-79
2022/03/27 13:16:25;;;;;;;17.45;2.75;;;16.60;62.20;;;;;;5110233;27;20070;-79